sensor_id;sensor_type;location;lat;lon;timestamp;temperature;humidity
44565;DHT22;30275;51.822;-0.326;2023-02-28T00:00:37;1.20;99.90
44565;DHT22;30275;51.822;-0.326;2023-02-28T00:03:03;1.20;99.90
44565;DHT22;30275;51.822;-0.326;2023-02-28T00:05:29;1.20;99.90
44565;DHT22;30275;51.822;-0.326;2023-02-28T00:07:55;1.20;99.90
44565;DHT22;30275;51.822;-0.326;2023-02-28T00:10:23;1.10;99.90
44565;DHT22;30275;51.822;-0.326;2023-02-28T00:12:54;1.10;99.90
44565;DHT22;30275;51.822;-0.326;2023-02-28T00:15:22;1.10;99.90
44565;DHT22;30275;51.822;-0.326;2023-02-28T00:17:48;1.20;99.90
44565;DHT22;30275;51.822;-0.326;2023-02-28T00:20:14;1.20;99.90
44565;DHT22;30275;51.822;-0.326;2023-02-28T00:22:46;1.10;99.90
44565;DHT22;30275;51.822;-0.326;2023-02-28T00:25:14;1.10;99.90
44565;DHT22;30275;51.822;-0.326;2023-02-28T00:27:40;1.10;99.90
44565;DHT22;30275;51.822;-0.326;2023-02-28T00:30:09;1.20;99.90
44565;DHT22;30275;51.822;-0.326;2023-02-28T00:32:35;1.20;99.90
44565;DHT22;30275;51.822;-0.326;2023-02-28T00:35:02;1.20;99.90
44565;DHT22;30275;51.822;-0.326;2023-02-28T00:37:28;1.20;99.90
44565;DHT22;30275;51.822;-0.326;2023-02-28T00:39:53;1.20;99.90
44565;DHT22;30275;51.822;-0.326;2023-02-28T00:42:24;1.20;99.90
44565;DHT22;30275;51.822;-0.326;2023-02-28T00:44:52;1.20;99.90
44565;DHT22;30275;51.822;-0.326;2023-02-28T00:47:17;1.20;99.90
44565;DHT22;30275;51.822;-0.326;2023-02-28T00:49:43;1.30;99.90
44565;DHT22;30275;51.822;-0.326;2023-02-28T00:52:09;1.30;99.90
44565;DHT22;30275;51.822;-0.326;2023-02-28T00:54:35;1.40;99.90
44565;DHT22;30275;51.822;-0.326;2023-02-28T00:57:01;1.30;99.90
44565;DHT22;30275;51.822;-0.326;2023-02-28T00:59:26;1.30;99.90
44565;DHT22;30275;51.822;-0.326;2023-02-28T01:01:52;1.40;99.90
44565;DHT22;30275;51.822;-0.326;2023-02-28T01:04:18;1.40;99.90
44565;DHT22;30275;51.822;-0.326;2023-02-28T01:06:43;1.40;99.90
44565;DHT22;30275;51.822;-0.326;2023-02-28T01:09:10;1.40;99.90
44565;DHT22;30275;51.822;-0.326;2023-02-28T01:11:36;1.40;99.90
44565;DHT22;30275;51.822;-0.326;2023-02-28T01:14:02;1.30;99.90
44565;DHT22;30275;51.822;-0.326;2023-02-28T01:16:29;1.40;99.90
44565;DHT22;30275;51.822;-0.326;2023-02-28T01:18:55;1.30;99.90
44565;DHT22;30275;51.822;-0.326;2023-02-28T01:21:21;1.30;99.90
44565;DHT22;30275;51.822;-0.326;2023-02-28T01:23:48;1.40;99.90
44565;DHT22;30275;51.822;-0.326;2023-02-28T01:26:16;1.40;99.90
44565;DHT22;30275;51.822;-0.326;2023-02-28T01:28:42;1.30;99.90
44565;DHT22;30275;51.822;-0.326;2023-02-28T01:31:08;1.40;99.90
44565;DHT22;30275;51.822;-0.326;2023-02-28T01:33:34;1.30;99.90
44565;DHT22;30275;51.822;-0.326;2023-02-28T01:36:06;1.40;99.90
44565;DHT22;30275;51.822;-0.326;2023-02-28T01:38:33;1.30;99.90
44565;DHT22;30275;51.822;-0.326;2023-02-28T01:40:58;1.40;99.90
44565;DHT22;30275;51.822;-0.326;2023-02-28T01:43:30;1.40;99.90
44565;DHT22;30275;51.822;-0.326;2023-02-28T01:45:57;1.30;99.90
44565;DHT22;30275;51.822;-0.326;2023-02-28T01:48:32;1.30;99.90
44565;DHT22;30275;51.822;-0.326;2023-02-28T01:51:01;1.30;99.90
44565;DHT22;30275;51.822;-0.326;2023-02-28T01:53:40;1.30;99.90
44565;DHT22;30275;51.822;-0.326;2023-02-28T01:56:09;1.30;99.90
44565;DHT22;30275;51.822;-0.326;2023-02-28T01:58:36;1.40;99.90
44565;DHT22;30275;51.822;-0.326;2023-02-28T02:01:02;1.40;99.90
44565;DHT22;30275;51.822;-0.326;2023-02-28T02:03:29;1.40;99.90
44565;DHT22;30275;51.822;-0.326;2023-02-28T02:05:55;1.40;99.90
44565;DHT22;30275;51.822;-0.326;2023-02-28T02:08:26;1.30;99.90
44565;DHT22;30275;51.822;-0.326;2023-02-28T02:10:54;1.30;99.90
44565;DHT22;30275;51.822;-0.326;2023-02-28T02:13:49;1.30;99.90
44565;DHT22;30275;51.822;-0.326;2023-02-28T02:22:06;1.20;99.90
44565;DHT22;30275;51.822;-0.326;2023-02-28T02:35:47;1.10;99.90
44565;DHT22;30275;51.822;-0.326;2023-02-28T02:46:48;1.10;99.90
44565;DHT22;30275;51.822;-0.326;2023-02-28T02:49:28;1.10;99.90
44565;DHT22;30275;51.822;-0.326;2023-02-28T02:51:56;1.10;99.90
44565;DHT22;30275;51.822;-0.326;2023-02-28T02:54:27;1.10;99.90
44565;DHT22;30275;51.822;-0.326;2023-02-28T02:56:56;1.00;99.90
44565;DHT22;30275;51.822;-0.326;2023-02-28T02:59:22;1.10;99.90
44565;DHT22;30275;51.822;-0.326;2023-02-28T03:01:53;1.10;99.90
44565;DHT22;30275;51.822;-0.326;2023-02-28T03:04:22;1.10;99.90
44565;DHT22;30275;51.822;-0.326;2023-02-28T03:06:48;1.20;99.90
44565;DHT22;30275;51.822;-0.326;2023-02-28T03:09:15;1.20;99.90
44565;DHT22;30275;51.822;-0.326;2023-02-28T03:11:41;1.20;99.90
44565;DHT22;30275;51.822;-0.326;2023-02-28T03:14:32;1.20;99.90
44565;DHT22;30275;51.822;-0.326;2023-02-28T03:17:12;1.30;99.90
44565;DHT22;30275;51.822;-0.326;2023-02-28T03:27:37;1.40;99.90
44565;DHT22;30275;51.822;-0.326;2023-02-28T03:30:23;1.50;99.90
44565;DHT22;30275;51.822;-0.326;2023-02-28T03:35:40;1.70;99.90
44565;DHT22;30275;51.822;-0.326;2023-02-28T03:38:57;1.70;99.90
44565;DHT22;30275;51.822;-0.326;2023-02-28T03:41:10;1.80;99.90
44565;DHT22;30275;51.822;-0.326;2023-02-28T03:43:40;1.90;99.90
44565;DHT22;30275;51.822;-0.326;2023-02-28T03:46:10;1.90;99.90
44565;DHT22;30275;51.822;-0.326;2023-02-28T03:48:42;1.90;99.90
44565;DHT22;30275;51.822;-0.326;2023-02-28T03:51:12;1.90;99.90
44565;DHT22;30275;51.822;-0.326;2023-02-28T03:53:45;1.90;99.90
44565;DHT22;30275;51.822;-0.326;2023-02-28T03:56:19;1.80;99.90
44565;DHT22;30275;51.822;-0.326;2023-02-28T04:03:51;1.80;99.90
44565;DHT22;30275;51.822;-0.326;2023-02-28T04:06:20;1.80;99.90
44565;DHT22;30275;51.822;-0.326;2023-02-28T04:08:47;1.80;99.90
44565;DHT22;30275;51.822;-0.326;2023-02-28T04:13:56;1.90;99.90
44565;DHT22;30275;51.822;-0.326;2023-02-28T04:16:22;2.00;99.90
44565;DHT22;30275;51.822;-0.326;2023-02-28T04:18:48;1.90;99.90
44565;DHT22;30275;51.822;-0.326;2023-02-28T04:21:13;2.00;99.90
44565;DHT22;30275;51.822;-0.326;2023-02-28T04:23:39;2.00;99.90
44565;DHT22;30275;51.822;-0.326;2023-02-28T04:26:05;2.00;99.90
44565;DHT22;30275;51.822;-0.326;2023-02-28T04:28:32;2.00;99.90
44565;DHT22;30275;51.822;-0.326;2023-02-28T04:31:01;2.00;99.90
44565;DHT22;30275;51.822;-0.326;2023-02-28T04:33:27;2.10;99.90
44565;DHT22;30275;51.822;-0.326;2023-02-28T04:36:06;2.20;99.90
44565;DHT22;30275;51.822;-0.326;2023-02-28T04:38:35;2.20;99.90
44565;DHT22;30275;51.822;-0.326;2023-02-28T04:41:01;2.10;99.90
44565;DHT22;30275;51.822;-0.326;2023-02-28T04:43:27;2.20;99.90
44565;DHT22;30275;51.822;-0.326;2023-02-28T04:45:54;2.20;99.90
44565;DHT22;30275;51.822;-0.326;2023-02-28T04:48:27;2.20;99.90
44565;DHT22;30275;51.822;-0.326;2023-02-28T04:50:53;2.20;99.90
44565;DHT22;30275;51.822;-0.326;2023-02-28T04:53:18;2.20;99.90
44565;DHT22;30275;51.822;-0.326;2023-02-28T04:55:44;2.20;99.90
44565;DHT22;30275;51.822;-0.326;2023-02-28T04:58:11;2.20;99.90
44565;DHT22;30275;51.822;-0.326;2023-02-28T05:00:37;2.20;99.90
44565;DHT22;30275;51.822;-0.326;2023-02-28T05:03:03;2.10;99.90
44565;DHT22;30275;51.822;-0.326;2023-02-28T05:05:28;2.10;99.90
44565;DHT22;30275;51.822;-0.326;2023-02-28T05:07:54;2.10;99.90
44565;DHT22;30275;51.822;-0.326;2023-02-28T05:10:21;2.10;99.90
44565;DHT22;30275;51.822;-0.326;2023-02-28T05:12:47;2.10;99.90
44565;DHT22;30275;51.822;-0.326;2023-02-28T05:15:15;2.00;99.90
44565;DHT22;30275;51.822;-0.326;2023-02-28T05:17:41;2.00;99.90
44565;DHT22;30275;51.822;-0.326;2023-02-28T05:20:08;2.00;99.90
44565;DHT22;30275;51.822;-0.326;2023-02-28T05:22:36;1.90;99.90
44565;DHT22;30275;51.822;-0.326;2023-02-28T05:25:03;2.00;99.90
44565;DHT22;30275;51.822;-0.326;2023-02-28T05:27:30;2.00;99.90
44565;DHT22;30275;51.822;-0.326;2023-02-28T05:29:56;2.00;99.90
44565;DHT22;30275;51.822;-0.326;2023-02-28T05:32:22;2.00;99.90
44565;DHT22;30275;51.822;-0.326;2023-02-28T05:34:48;2.00;99.90
44565;DHT22;30275;51.822;-0.326;2023-02-28T05:37:15;2.00;99.90
44565;DHT22;30275;51.822;-0.326;2023-02-28T05:39:41;2.00;99.90
44565;DHT22;30275;51.822;-0.326;2023-02-28T05:42:07;2.00;99.90
44565;DHT22;30275;51.822;-0.326;2023-02-28T05:44:35;2.00;99.90
44565;DHT22;30275;51.822;-0.326;2023-02-28T05:47:00;2.00;99.90
44565;DHT22;30275;51.822;-0.326;2023-02-28T05:49:26;1.90;99.90
44565;DHT22;30275;51.822;-0.326;2023-02-28T05:51:52;1.90;99.90
44565;DHT22;30275;51.822;-0.326;2023-02-28T05:54:17;1.90;99.90
44565;DHT22;30275;51.822;-0.326;2023-02-28T05:56:43;1.80;99.90
44565;DHT22;30275;51.822;-0.326;2023-02-28T05:59:14;1.80;99.90
44565;DHT22;30275;51.822;-0.326;2023-02-28T06:01:45;1.90;99.90
44565;DHT22;30275;51.822;-0.326;2023-02-28T06:04:14;1.90;99.90
44565;DHT22;30275;51.822;-0.326;2023-02-28T06:06:44;1.80;99.90
44565;DHT22;30275;51.822;-0.326;2023-02-28T06:09:10;1.80;99.90
44565;DHT22;30275;51.822;-0.326;2023-02-28T06:11:36;1.80;99.90
44565;DHT22;30275;51.822;-0.326;2023-02-28T06:14:02;1.90;99.90
44565;DHT22;30275;51.822;-0.326;2023-02-28T06:16:29;2.00;99.90
44565;DHT22;30275;51.822;-0.326;2023-02-28T06:18:57;2.00;99.90
44565;DHT22;30275;51.822;-0.326;2023-02-28T06:21:23;2.00;99.90
44565;DHT22;30275;51.822;-0.326;2023-02-28T06:23:49;2.00;99.90
44565;DHT22;30275;51.822;-0.326;2023-02-28T06:26:15;2.00;99.90
44565;DHT22;30275;51.822;-0.326;2023-02-28T06:28:41;2.10;99.90
44565;DHT22;30275;51.822;-0.326;2023-02-28T06:31:12;2.10;99.90
44565;DHT22;30275;51.822;-0.326;2023-02-28T06:33:39;2.10;99.90
44565;DHT22;30275;51.822;-0.326;2023-02-28T06:36:06;2.10;99.90
44565;DHT22;30275;51.822;-0.326;2023-02-28T06:38:32;2.10;99.90
44565;DHT22;30275;51.822;-0.326;2023-02-28T06:40:59;2.10;99.90
44565;DHT22;30275;51.822;-0.326;2023-02-28T06:43:27;2.10;99.90
44565;DHT22;30275;51.822;-0.326;2023-02-28T06:45:57;2.20;99.90
44565;DHT22;30275;51.822;-0.326;2023-02-28T06:48:25;2.20;99.90
44565;DHT22;30275;51.822;-0.326;2023-02-28T06:50:51;2.20;99.90
44565;DHT22;30275;51.822;-0.326;2023-02-28T06:53:16;2.30;99.90
44565;DHT22;30275;51.822;-0.326;2023-02-28T06:55:42;2.40;99.90
44565;DHT22;30275;51.822;-0.326;2023-02-28T06:58:07;2.40;99.90
44565;DHT22;30275;51.822;-0.326;2023-02-28T07:00:41;2.50;99.90
44565;DHT22;30275;51.822;-0.326;2023-02-28T07:03:07;2.70;99.90
44565;DHT22;30275;51.822;-0.326;2023-02-28T07:05:35;2.80;99.90
44565;DHT22;30275;51.822;-0.326;2023-02-28T07:08:02;2.80;99.90
44565;DHT22;30275;51.822;-0.326;2023-02-28T07:10:28;2.90;99.90
44565;DHT22;30275;51.822;-0.326;2023-02-28T07:12:54;2.90;99.90
44565;DHT22;30275;51.822;-0.326;2023-02-28T07:15:20;3.00;99.90
44565;DHT22;30275;51.822;-0.326;2023-02-28T07:17:46;3.00;99.90
44565;DHT22;30275;51.822;-0.326;2023-02-28T07:20:12;3.00;99.90
44565;DHT22;30275;51.822;-0.326;2023-02-28T07:22:37;3.10;99.90
44565;DHT22;30275;51.822;-0.326;2023-02-28T07:25:04;3.20;99.90
44565;DHT22;30275;51.822;-0.326;2023-02-28T07:27:30;3.20;99.90
44565;DHT22;30275;51.822;-0.326;2023-02-28T07:29:56;3.30;99.90
44565;DHT22;30275;51.822;-0.326;2023-02-28T07:32:21;3.40;99.90
44565;DHT22;30275;51.822;-0.326;2023-02-28T07:34:47;3.40;99.90
44565;DHT22;30275;51.822;-0.326;2023-02-28T07:37:14;3.50;99.90
44565;DHT22;30275;51.822;-0.326;2023-02-28T07:39:40;3.60;99.90
44565;DHT22;30275;51.822;-0.326;2023-02-28T07:42:09;3.70;99.90
44565;DHT22;30275;51.822;-0.326;2023-02-28T07:44:37;3.80;99.90
44565;DHT22;30275;51.822;-0.326;2023-02-28T07:47:07;3.90;99.90
44565;DHT22;30275;51.822;-0.326;2023-02-28T07:49:34;4.00;99.90
44565;DHT22;30275;51.822;-0.326;2023-02-28T07:51:59;4.10;99.90
44565;DHT22;30275;51.822;-0.326;2023-02-28T07:54:25;4.10;99.90
44565;DHT22;30275;51.822;-0.326;2023-02-28T07:56:50;4.20;99.90
44565;DHT22;30275;51.822;-0.326;2023-02-28T07:59:16;4.30;99.90
44565;DHT22;30275;51.822;-0.326;2023-02-28T08:01:42;4.40;99.90
44565;DHT22;30275;51.822;-0.326;2023-02-28T08:04:09;4.40;99.90
44565;DHT22;30275;51.822;-0.326;2023-02-28T08:06:35;4.40;99.90
44565;DHT22;30275;51.822;-0.326;2023-02-28T08:09:01;4.40;99.90
44565;DHT22;30275;51.822;-0.326;2023-02-28T08:11:26;4.60;99.90
44565;DHT22;30275;51.822;-0.326;2023-02-28T08:13:52;4.70;99.90
44565;DHT22;30275;51.822;-0.326;2023-02-28T08:16:17;4.80;99.90
44565;DHT22;30275;51.822;-0.326;2023-02-28T08:18:48;5.00;99.90
44565;DHT22;30275;51.822;-0.326;2023-02-28T08:21:14;5.00;99.90
44565;DHT22;30275;51.822;-0.326;2023-02-28T08:23:39;5.00;99.90
44565;DHT22;30275;51.822;-0.326;2023-02-28T08:26:05;4.90;99.90
44565;DHT22;30275;51.822;-0.326;2023-02-28T08:28:31;4.90;99.90
44565;DHT22;30275;51.822;-0.326;2023-02-28T08:30:57;4.90;99.90
44565;DHT22;30275;51.822;-0.326;2023-02-28T08:33:23;4.90;99.90
44565;DHT22;30275;51.822;-0.326;2023-02-28T08:35:55;4.90;99.90
44565;DHT22;30275;51.822;-0.326;2023-02-28T08:38:21;4.90;99.90
44565;DHT22;30275;51.822;-0.326;2023-02-28T08:40:47;4.90;99.90
44565;DHT22;30275;51.822;-0.326;2023-02-28T08:43:13;4.80;99.90
44565;DHT22;30275;51.822;-0.326;2023-02-28T08:45:39;4.90;99.90
44565;DHT22;30275;51.822;-0.326;2023-02-28T08:48:04;4.90;99.90
44565;DHT22;30275;51.822;-0.326;2023-02-28T08:50:30;5.20;99.90
44565;DHT22;30275;51.822;-0.326;2023-02-28T08:52:55;5.30;99.90
44565;DHT22;30275;51.822;-0.326;2023-02-28T08:55:21;5.40;99.90
44565;DHT22;30275;51.822;-0.326;2023-02-28T08:57:47;5.40;99.90
44565;DHT22;30275;51.822;-0.326;2023-02-28T09:00:12;5.30;99.90
44565;DHT22;30275;51.822;-0.326;2023-02-28T09:02:39;5.40;99.90
44565;DHT22;30275;51.822;-0.326;2023-02-28T09:05:05;5.30;99.90
44565;DHT22;30275;51.822;-0.326;2023-02-28T09:07:31;5.40;99.90
44565;DHT22;30275;51.822;-0.326;2023-02-28T09:09:57;5.30;99.90
44565;DHT22;30275;51.822;-0.326;2023-02-28T09:12:27;5.40;99.90
44565;DHT22;30275;51.822;-0.326;2023-02-28T09:14:53;5.40;99.90
44565;DHT22;30275;51.822;-0.326;2023-02-28T09:17:19;5.40;99.90
44565;DHT22;30275;51.822;-0.326;2023-02-28T09:19:47;5.30;99.90
44565;DHT22;30275;51.822;-0.326;2023-02-28T09:22:13;5.40;99.90
44565;DHT22;30275;51.822;-0.326;2023-02-28T09:24:39;5.40;99.90
44565;DHT22;30275;51.822;-0.326;2023-02-28T09:27:05;5.60;99.90
44565;DHT22;30275;51.822;-0.326;2023-02-28T09:29:32;5.80;99.90
44565;DHT22;30275;51.822;-0.326;2023-02-28T09:31:58;6.10;99.90
44565;DHT22;30275;51.822;-0.326;2023-02-28T09:34:25;6.30;99.90
44565;DHT22;30275;51.822;-0.326;2023-02-28T09:36:50;6.30;99.90
44565;DHT22;30275;51.822;-0.326;2023-02-28T09:39:21;6.30;99.90
44565;DHT22;30275;51.822;-0.326;2023-02-28T09:41:50;6.20;99.90
44565;DHT22;30275;51.822;-0.326;2023-02-28T09:47:10;6.10;99.90
44565;DHT22;30275;51.822;-0.326;2023-02-28T09:49:47;6.20;99.90
44565;DHT22;30275;51.822;-0.326;2023-02-28T09:52:25;6.70;99.90
44565;DHT22;30275;51.822;-0.326;2023-02-28T09:54:53;6.70;99.90
44565;DHT22;30275;51.822;-0.326;2023-02-28T09:57:35;6.60;99.90
44565;DHT22;30275;51.822;-0.326;2023-02-28T10:05:23;6.40;99.90
44565;DHT22;30275;51.822;-0.326;2023-02-28T10:08:18;6.50;99.90
44565;DHT22;30275;51.822;-0.326;2023-02-28T10:10:51;6.30;99.90
44565;DHT22;30275;51.822;-0.326;2023-02-28T10:13:28;6.10;99.90
44565;DHT22;30275;51.822;-0.326;2023-02-28T10:16:19;6.00;99.90
44565;DHT22;30275;51.822;-0.326;2023-02-28T10:18:56;5.90;99.90
44565;DHT22;30275;51.822;-0.326;2023-02-28T10:21:30;6.00;99.90
44565;DHT22;30275;51.822;-0.326;2023-02-28T10:24:03;6.10;99.90
44565;DHT22;30275;51.822;-0.326;2023-02-28T10:26:31;6.20;99.90
44565;DHT22;30275;51.822;-0.326;2023-02-28T10:28:57;6.30;99.90
44565;DHT22;30275;51.822;-0.326;2023-02-28T10:31:23;6.70;99.90
44565;DHT22;30275;51.822;-0.326;2023-02-28T10:33:49;7.10;99.90
44565;DHT22;30275;51.822;-0.326;2023-02-28T10:36:18;7.20;99.90
44565;DHT22;30275;51.822;-0.326;2023-02-28T10:38:45;7.20;99.90
44565;DHT22;30275;51.822;-0.326;2023-02-28T10:41:29;7.00;99.90
44565;DHT22;30275;51.822;-0.326;2023-02-28T10:44:23;6.60;99.90
44565;DHT22;30275;51.822;-0.326;2023-02-28T10:46:49;6.40;99.90
44565;DHT22;30275;51.822;-0.326;2023-02-28T10:49:28;6.40;99.90
44565;DHT22;30275;51.822;-0.326;2023-02-28T10:51:57;6.30;99.90
44565;DHT22;30275;51.822;-0.326;2023-02-28T10:54:30;6.20;99.90
44565;DHT22;30275;51.822;-0.326;2023-02-28T10:57:19;6.30;99.90
44565;DHT22;30275;51.822;-0.326;2023-02-28T10:59:45;6.40;99.90
44565;DHT22;30275;51.822;-0.326;2023-02-28T11:02:33;6.40;99.90
44565;DHT22;30275;51.822;-0.326;2023-02-28T11:04:59;6.30;99.90
44565;DHT22;30275;51.822;-0.326;2023-02-28T11:07:26;6.50;99.90
44565;DHT22;30275;51.822;-0.326;2023-02-28T11:09:55;6.90;99.90
44565;DHT22;30275;51.822;-0.326;2023-02-28T11:12:38;6.90;99.90
44565;DHT22;30275;51.822;-0.326;2023-02-28T11:15:28;6.90;99.90
44565;DHT22;30275;51.822;-0.326;2023-02-28T11:18:01;7.00;99.90
44565;DHT22;30275;51.822;-0.326;2023-02-28T11:20:30;7.00;99.90
44565;DHT22;30275;51.822;-0.326;2023-02-28T11:22:58;6.80;99.90
44565;DHT22;30275;51.822;-0.326;2023-02-28T11:25:30;6.60;99.90
44565;DHT22;30275;51.822;-0.326;2023-02-28T11:27:58;6.30;99.90
44565;DHT22;30275;51.822;-0.326;2023-02-28T11:32:54;6.30;99.90
44565;DHT22;30275;51.822;-0.326;2023-02-28T11:35:47;6.10;99.90
44565;DHT22;30275;51.822;-0.326;2023-02-28T11:38:14;6.10;99.90
44565;DHT22;30275;51.822;-0.326;2023-02-28T11:40:44;6.10;99.90
44565;DHT22;30275;51.822;-0.326;2023-02-28T11:43:41;6.30;99.90
44565;DHT22;30275;51.822;-0.326;2023-02-28T11:49:30;6.90;99.90
44565;DHT22;30275;51.822;-0.326;2023-02-28T11:58:27;6.90;99.90
44565;DHT22;30275;51.822;-0.326;2023-02-28T12:03:55;6.60;99.90
44565;DHT22;30275;51.822;-0.326;2023-02-28T12:06:25;6.50;99.90
44565;DHT22;30275;51.822;-0.326;2023-02-28T12:11:56;7.00;99.90
44565;DHT22;30275;51.822;-0.326;2023-02-28T12:15:13;7.40;99.90
44565;DHT22;30275;51.822;-0.326;2023-02-28T12:27:36;7.10;99.90
44565;DHT22;30275;51.822;-0.326;2023-02-28T12:30:30;7.30;99.90
44565;DHT22;30275;51.822;-0.326;2023-02-28T12:33:12;7.60;99.90
44565;DHT22;30275;51.822;-0.326;2023-02-28T12:35:57;7.70;99.90
44565;DHT22;30275;51.822;-0.326;2023-02-28T12:38:27;7.60;99.90
44565;DHT22;30275;51.822;-0.326;2023-02-28T12:41:16;7.50;99.90
44565;DHT22;30275;51.822;-0.326;2023-02-28T12:43:55;7.30;99.90
44565;DHT22;30275;51.822;-0.326;2023-02-28T12:46:24;7.20;99.90
44565;DHT22;30275;51.822;-0.326;2023-02-28T12:48:56;7.10;99.90
44565;DHT22;30275;51.822;-0.326;2023-02-28T12:51:24;7.00;99.90
44565;DHT22;30275;51.822;-0.326;2023-02-28T12:54:04;6.90;99.90
44565;DHT22;30275;51.822;-0.326;2023-02-28T12:56:50;6.90;99.90
44565;DHT22;30275;51.822;-0.326;2023-02-28T12:59:38;7.00;99.90
44565;DHT22;30275;51.822;-0.326;2023-02-28T13:08:21;7.70;99.90
44565;DHT22;30275;51.822;-0.326;2023-02-28T13:10:50;7.70;99.90
44565;DHT22;30275;51.822;-0.326;2023-02-28T13:13:25;7.50;99.90
44565;DHT22;30275;51.822;-0.326;2023-02-28T13:16:11;7.50;99.90
44565;DHT22;30275;51.822;-0.326;2023-02-28T13:18:43;7.40;99.90
44565;DHT22;30275;51.822;-0.326;2023-02-28T13:21:22;7.30;99.90
44565;DHT22;30275;51.822;-0.326;2023-02-28T13:26:21;7.30;99.90
44565;DHT22;30275;51.822;-0.326;2023-02-28T13:29:00;7.30;99.90
44565;DHT22;30275;51.822;-0.326;2023-02-28T13:31:26;7.30;99.90
44565;DHT22;30275;51.822;-0.326;2023-02-28T13:36:26;7.30;99.90
44565;DHT22;30275;51.822;-0.326;2023-02-28T13:38:56;7.40;99.90
44565;DHT22;30275;51.822;-0.326;2023-02-28T13:44:19;7.40;99.90
44565;DHT22;30275;51.822;-0.326;2023-02-28T13:51:52;8.00;99.90
44565;DHT22;30275;51.822;-0.326;2023-02-28T13:57:19;8.10;99.90
44565;DHT22;30275;51.822;-0.326;2023-02-28T13:59:50;8.00;99.90
44565;DHT22;30275;51.822;-0.326;2023-02-28T14:05:01;7.90;99.90
44565;DHT22;30275;51.822;-0.326;2023-02-28T14:07:31;7.90;99.90
44565;DHT22;30275;51.822;-0.326;2023-02-28T14:10:04;7.90;99.90
44565;DHT22;30275;51.822;-0.326;2023-02-28T14:17:57;7.60;99.90
44565;DHT22;30275;51.822;-0.326;2023-02-28T14:20:30;7.60;99.90
44565;DHT22;30275;51.822;-0.326;2023-02-28T14:25:49;7.60;99.90
44565;DHT22;30275;51.822;-0.326;2023-02-28T14:28:45;7.60;99.90
44565;DHT22;30275;51.822;-0.326;2023-02-28T14:31:17;7.60;99.90
44565;DHT22;30275;51.822;-0.326;2023-02-28T14:34:05;7.80;99.90
44565;DHT22;30275;51.822;-0.326;2023-02-28T14:36:36;8.00;99.90
44565;DHT22;30275;51.822;-0.326;2023-02-28T14:39:19;8.10;99.90
44565;DHT22;30275;51.822;-0.326;2023-02-28T14:41:46;8.00;99.90
44565;DHT22;30275;51.822;-0.326;2023-02-28T14:44:23;8.00;99.90
44565;DHT22;30275;51.822;-0.326;2023-02-28T14:46:57;7.80;99.90
44565;DHT22;30275;51.822;-0.326;2023-02-28T14:49:32;7.70;99.90
44565;DHT22;30275;51.822;-0.326;2023-02-28T14:52:21;7.50;99.90
44565;DHT22;30275;51.822;-0.326;2023-02-28T14:54:55;7.50;99.90
44565;DHT22;30275;51.822;-0.326;2023-02-28T15:02:35;7.70;99.90
44565;DHT22;30275;51.822;-0.326;2023-02-28T15:08:12;7.70;99.90
44565;DHT22;30275;51.822;-0.326;2023-02-28T15:10:41;7.70;99.90
44565;DHT22;30275;51.822;-0.326;2023-02-28T15:13:12;7.60;99.90
44565;DHT22;30275;51.822;-0.326;2023-02-28T15:15:43;7.60;99.90
44565;DHT22;30275;51.822;-0.326;2023-02-28T15:21:12;7.60;99.90
44565;DHT22;30275;51.822;-0.326;2023-02-28T15:23:41;7.60;99.90
44565;DHT22;30275;51.822;-0.326;2023-02-28T15:26:09;7.60;99.90
44565;DHT22;30275;51.822;-0.326;2023-02-28T15:28:36;7.60;99.90
44565;DHT22;30275;51.822;-0.326;2023-02-28T15:31:16;7.60;99.90
44565;DHT22;30275;51.822;-0.326;2023-02-28T15:33:55;7.60;99.90
44565;DHT22;30275;51.822;-0.326;2023-02-28T15:36:25;7.60;99.90
44565;DHT22;30275;51.822;-0.326;2023-02-28T15:38:53;7.60;99.90
44565;DHT22;30275;51.822;-0.326;2023-02-28T15:41:28;7.60;99.90
44565;DHT22;30275;51.822;-0.326;2023-02-28T15:44:25;7.50;99.90
44565;DHT22;30275;51.822;-0.326;2023-02-28T15:52:18;7.50;99.90
44565;DHT22;30275;51.822;-0.326;2023-02-28T15:54:45;7.40;99.90
44565;DHT22;30275;51.822;-0.326;2023-02-28T15:57:15;7.50;99.90
44565;DHT22;30275;51.822;-0.326;2023-02-28T15:59:50;7.40;99.90
44565;DHT22;30275;51.822;-0.326;2023-02-28T16:02:36;7.40;99.90
44565;DHT22;30275;51.822;-0.326;2023-02-28T16:07:38;7.50;99.90
44565;DHT22;30275;51.822;-0.326;2023-02-28T16:10:06;7.40;99.90
44565;DHT22;30275;51.822;-0.326;2023-02-28T16:12:33;7.50;99.90
44565;DHT22;30275;51.822;-0.326;2023-02-28T16:15:02;7.50;99.90
44565;DHT22;30275;51.822;-0.326;2023-02-28T16:17:33;7.40;99.90
44565;DHT22;30275;51.822;-0.326;2023-02-28T16:19:59;7.40;99.90
44565;DHT22;30275;51.822;-0.326;2023-02-28T16:22:25;7.40;99.90
44565;DHT22;30275;51.822;-0.326;2023-02-28T16:24:51;7.30;99.90
44565;DHT22;30275;51.822;-0.326;2023-02-28T16:27:20;7.40;99.90
44565;DHT22;30275;51.822;-0.326;2023-02-28T16:29:47;7.20;99.90
44565;DHT22;30275;51.822;-0.326;2023-02-28T16:32:15;7.20;99.90
44565;DHT22;30275;51.822;-0.326;2023-02-28T16:34:42;7.20;99.90
44565;DHT22;30275;51.822;-0.326;2023-02-28T16:37:16;7.10;99.90
44565;DHT22;30275;51.822;-0.326;2023-02-28T16:39:42;7.10;99.90
44565;DHT22;30275;51.822;-0.326;2023-02-28T16:42:15;7.00;99.90
44565;DHT22;30275;51.822;-0.326;2023-02-28T16:44:42;7.00;99.90
44565;DHT22;30275;51.822;-0.326;2023-02-28T16:47:10;7.00;99.90
44565;DHT22;30275;51.822;-0.326;2023-02-28T16:49:36;7.00;99.90
44565;DHT22;30275;51.822;-0.326;2023-02-28T16:52:01;6.90;99.90
44565;DHT22;30275;51.822;-0.326;2023-02-28T16:54:27;6.90;99.90
44565;DHT22;30275;51.822;-0.326;2023-02-28T16:56:53;6.90;99.90
44565;DHT22;30275;51.822;-0.326;2023-02-28T16:59:22;6.90;99.90
44565;DHT22;30275;51.822;-0.326;2023-02-28T17:01:49;6.80;99.90
44565;DHT22;30275;51.822;-0.326;2023-02-28T17:04:15;6.90;99.90
44565;DHT22;30275;51.822;-0.326;2023-02-28T17:06:41;6.80;99.90
44565;DHT22;30275;51.822;-0.326;2023-02-28T17:09:16;6.80;99.90
44565;DHT22;30275;51.822;-0.326;2023-02-28T17:11:42;6.80;99.90
44565;DHT22;30275;51.822;-0.326;2023-02-28T17:14:08;6.70;99.90
44565;DHT22;30275;51.822;-0.326;2023-02-28T17:16:35;6.70;99.90
44565;DHT22;30275;51.822;-0.326;2023-02-28T17:19:04;6.70;99.90
44565;DHT22;30275;51.822;-0.326;2023-02-28T17:21:31;6.60;99.90
44565;DHT22;30275;51.822;-0.326;2023-02-28T17:23:57;6.60;99.90
44565;DHT22;30275;51.822;-0.326;2023-02-28T17:26:23;6.60;99.90
44565;DHT22;30275;51.822;-0.326;2023-02-28T17:28:54;6.50;99.90
44565;DHT22;30275;51.822;-0.326;2023-02-28T17:31:22;6.60;99.90
44565;DHT22;30275;51.822;-0.326;2023-02-28T17:33:47;6.50;99.90
44565;DHT22;30275;51.822;-0.326;2023-02-28T17:36:15;6.60;99.90
44565;DHT22;30275;51.822;-0.326;2023-02-28T17:38:41;6.60;99.90
44565;DHT22;30275;51.822;-0.326;2023-02-28T17:41:10;6.50;99.90
44565;DHT22;30275;51.822;-0.326;2023-02-28T17:43:35;6.50;99.90
44565;DHT22;30275;51.822;-0.326;2023-02-28T17:46:01;6.50;99.90
44565;DHT22;30275;51.822;-0.326;2023-02-28T17:48:26;6.50;99.90
44565;DHT22;30275;51.822;-0.326;2023-02-28T17:50:53;6.50;99.90
44565;DHT22;30275;51.822;-0.326;2023-02-28T17:53:19;6.50;99.90
44565;DHT22;30275;51.822;-0.326;2023-02-28T17:55:51;6.40;99.90
44565;DHT22;30275;51.822;-0.326;2023-02-28T17:58:16;6.40;99.90